createdAt,value
2023-05-23T00:01:24.796Z,95771.38
2023-05-23T00:03:31.337Z,95765.19
2023-05-23T00:05:34.257Z,95766.63
2023-05-23T00:07:37.175Z,95754.69
2023-05-23T00:09:39.952Z,95764.44
2023-05-23T00:11:45.146Z,95763.81
2023-05-23T00:13:47.885Z,95765.88
2023-05-23T00:15:50.719Z,95770.72
2023-05-23T00:17:53.555Z,95771.75
2023-05-23T00:19:57.702Z,95773.91
2023-05-23T00:22:00.485Z,95771.19
2023-05-23T00:24:04.575Z,95774.47
2023-05-23T00:26:07.352Z,95681.63
2023-05-23T00:28:10.096Z,95772.84
2023-05-23T00:30:13.252Z,95771.75
2023-05-23T00:32:16.009Z,95774.53
2023-05-23T00:34:18.792Z,95664.22
2023-05-23T00:36:24.248Z,95773.50
2023-05-23T00:38:28.437Z,95775.94
2023-05-23T00:40:31.227Z,95778.38
2023-05-23T00:42:34.034Z,95712.53
2023-05-23T00:44:36.816Z,95791.31
2023-05-23T00:46:39.834Z,95781.75
2023-05-23T00:48:42.735Z,95788.25
2023-05-23T00:50:46.603Z,95785.94
2023-05-23T00:52:51.106Z,95786.56
2023-05-23T00:54:53.976Z,95789.03
2023-05-23T00:56:57.011Z,95785.78
2023-05-23T00:59:02.002Z,95785.88
2023-05-23T01:01:05.851Z,95798.97
2023-05-23T01:03:08.737Z,95791.56
2023-05-23T01:05:14.393Z,95800.34
2023-05-23T01:07:17.176Z,95794.31
2023-05-23T01:09:24.574Z,95796.44
2023-05-23T01:11:34.243Z,95801.56
2023-05-23T01:13:43.224Z,95800.44
2023-05-23T01:15:53.034Z,95802.03
2023-05-23T01:18:03.333Z,95805.25
2023-05-23T01:20:12.708Z,95809.56
2023-05-23T01:22:24.507Z,95806.34
2023-05-23T01:24:36.377Z,95799.84
2023-05-23T01:26:58.747Z,95755.09
2023-05-23T01:29:10.340Z,95786.59
2023-05-23T01:31:14.184Z,95794.50
2023-05-23T01:33:18.409Z,95800.72
2023-05-23T01:35:27.022Z,95803.44
2023-05-23T01:37:31.125Z,95805.31
2023-05-23T01:39:33.939Z,95805.25
2023-05-23T01:41:36.728Z,95798.16
2023-05-23T01:43:39.918Z,95804.75
2023-05-23T01:45:44.878Z,95810.81
2023-05-23T01:47:50.247Z,95814.84
2023-05-23T01:49:55.486Z,95807.56
2023-05-23T01:51:58.627Z,95810.22
2023-05-23T01:54:01.681Z,95811.41
2023-05-23T01:56:04.911Z,95817.63
2023-05-23T01:58:07.813Z,95821.06
2023-05-23T02:00:12.423Z,95818.50
2023-05-23T02:02:19.507Z,95805.63
2023-05-23T02:04:22.850Z,95825.66
2023-05-23T02:06:25.673Z,95812.66
2023-05-23T02:08:28.417Z,95812.13
2023-05-23T02:10:32.113Z,95812.13
2023-05-23T02:12:36.843Z,95810.72
2023-05-23T02:14:39.687Z,95806.84
2023-05-23T02:16:42.482Z,95804.81
2023-05-23T02:18:47.111Z,95810.97
2023-05-23T02:20:49.844Z,95810.75
2023-05-23T02:22:52.588Z,95802.03
2023-05-23T02:24:55.342Z,95805.88
2023-05-23T02:26:58.064Z,95800.72
2023-05-23T02:29:00.823Z,95805.94
2023-05-23T02:31:04.146Z,95705.88
2023-05-23T02:33:07.954Z,95750.00
2023-05-23T02:35:13.213Z,95814.16
2023-05-23T02:37:16.778Z,95817.91
2023-05-23T02:39:19.474Z,95817.13
2023-05-23T02:41:23.098Z,95815.19
2023-05-23T02:43:25.889Z,95807.63
2023-05-23T02:45:28.696Z,95804.75
2023-05-23T02:47:31.556Z,95809.97
2023-05-23T02:49:34.448Z,95808.31
2023-05-23T02:51:38.662Z,95810.50
2023-05-23T02:53:41.492Z,95806.28
2023-05-23T02:55:44.280Z,95813.69
2023-05-23T02:57:47.257Z,95812.91
2023-05-23T02:59:50.096Z,95815.41
2023-05-23T03:01:53.233Z,95813.25
2023-05-23T03:03:56.792Z,95781.38
2023-05-23T03:05:59.696Z,95803.34
2023-05-23T03:08:03.922Z,95814.88
2023-05-23T03:10:08.205Z,95811.34
2023-05-23T03:12:10.957Z,95807.84
2023-05-23T03:14:13.849Z,95805.66
2023-05-23T03:16:16.665Z,95800.06
2023-05-23T03:18:19.402Z,95835.06
2023-05-23T03:20:22.445Z,95804.44
2023-05-23T03:22:25.476Z,95813.63
2023-05-23T03:24:29.524Z,95811.91
2023-05-23T03:26:32.405Z,95815.13
2023-05-23T03:28:35.185Z,95791.59
2023-05-23T03:30:37.943Z,95724.78
2023-05-23T03:32:41.157Z,95819.16
2023-05-23T03:34:43.977Z,95827.16
2023-05-23T03:36:47.481Z,95835.06
2023-05-23T03:38:50.262Z,95827.97
2023-05-23T03:40:54.464Z,95830.81
2023-05-23T03:43:04.662Z,95829.19
2023-05-23T03:45:08.928Z,95832.72
2023-05-23T03:47:12.169Z,95794.03
2023-05-23T03:49:22.708Z,95821.41
2023-05-23T03:51:25.487Z,95818.34
2023-05-23T03:53:28.884Z,95824.47
2023-05-23T03:55:33.082Z,95824.06
2023-05-23T03:57:38.470Z,95828.25
2023-05-23T03:59:41.290Z,95820.19
2023-05-23T04:01:47.072Z,95825.09
2023-05-23T04:03:50.435Z,95820.78
2023-05-23T04:05:54.302Z,95824.44
2023-05-23T04:07:57.624Z,95824.81
2023-05-23T04:10:00.374Z,95824.47
2023-05-23T04:12:03.105Z,95816.97
2023-05-23T04:14:07.938Z,95827.34
2023-05-23T04:16:10.752Z,95821.06
2023-05-23T04:18:15.000Z,95821.97
2023-05-23T04:20:19.292Z,95747.66
2023-05-23T04:22:22.126Z,95825.16
2023-05-23T04:24:24.932Z,95830.34
2023-05-23T04:26:27.906Z,95809.47
2023-05-23T04:28:31.427Z,95832.31
2023-05-23T04:30:36.091Z,95833.91
2023-05-23T04:32:39.105Z,95824.47
2023-05-23T04:34:42.402Z,95836.69
2023-05-23T04:36:45.592Z,95807.69
2023-05-23T04:38:48.917Z,95838.94
2023-05-23T04:40:52.642Z,95842.75
2023-05-23T04:43:14.327Z,95839.56
2023-05-23T04:45:26.546Z,95843.66
2023-05-23T04:47:40.196Z,95842.00
2023-05-23T04:49:45.007Z,95804.63
2023-05-23T04:51:48.064Z,95838.06
2023-05-23T04:54:09.732Z,95848.47
2023-05-23T04:56:13.196Z,95853.47
2023-05-23T04:58:16.210Z,95851.50
2023-05-23T05:00:20.443Z,95800.06
2023-05-23T05:02:23.415Z,95834.25
2023-05-23T05:04:27.579Z,95853.97
2023-05-23T05:06:31.024Z,95861.16
2023-05-23T05:08:34.059Z,95857.91
2023-05-23T05:10:36.985Z,95866.50
2023-05-23T05:12:39.728Z,95875.78
2023-05-23T05:14:42.973Z,95869.94
2023-05-23T05:16:47.849Z,95870.72
2023-05-23T05:18:51.930Z,95875.44
2023-05-23T05:20:58.496Z,95874.09
2023-05-23T05:23:01.272Z,95879.84
2023-05-23T05:25:06.534Z,95883.66
2023-05-23T05:27:11.751Z,95879.69
2023-05-23T05:29:14.479Z,95884.47
2023-05-23T05:31:18.975Z,95857.19
2023-05-23T05:33:23.473Z,95871.81
2023-05-23T05:35:29.466Z,95887.03
2023-05-23T05:37:33.626Z,95881.63
2023-05-23T05:39:36.361Z,95884.94
2023-05-23T05:41:39.935Z,95892.22
2023-05-23T05:43:42.642Z,95820.59
2023-05-23T05:45:45.562Z,95881.50
2023-05-23T05:47:48.615Z,95886.59
2023-05-23T05:49:51.606Z,95895.25
2023-05-23T05:51:54.363Z,95894.06
2023-05-23T05:53:58.543Z,95894.84
2023-05-23T05:56:01.625Z,95894.06
2023-05-23T05:58:05.665Z,95889.16
2023-05-23T06:00:22.875Z,95872.16
2023-05-23T06:02:32.054Z,95895.69
2023-05-23T06:04:34.933Z,95890.78
2023-05-23T06:06:37.812Z,95889.72
2023-05-23T06:08:40.999Z,95887.72
2023-05-23T06:10:48.513Z,95906.03
2023-05-23T06:12:51.507Z,95890.50
2023-05-23T06:14:54.822Z,95891.25
2023-05-23T06:16:57.617Z,95889.53
2023-05-23T06:19:00.454Z,95895.41
2023-05-23T06:21:05.573Z,95894.78
2023-05-23T06:23:10.080Z,95899.94
2023-05-23T06:25:15.449Z,95889.97
2023-05-23T06:27:19.557Z,95902.28
2023-05-23T06:29:22.698Z,95905.41
2023-05-23T06:31:25.552Z,95911.22
2023-05-23T06:33:29.226Z,95911.72
2023-05-23T06:35:32.416Z,95912.59
2023-05-23T06:37:37.109Z,95908.97
2023-05-23T06:39:39.849Z,95910.84
2023-05-23T06:41:44.631Z,95872.38
2023-05-23T06:43:48.751Z,95909.94
2023-05-23T06:45:58.875Z,95912.75
2023-05-23T06:48:04.651Z,95912.53
2023-05-23T06:50:10.033Z,95917.44
2023-05-23T06:52:13.143Z,95918.16
2023-05-23T06:54:16.038Z,95921.97
2023-05-23T06:56:24.440Z,95924.38
2023-05-23T06:58:32.334Z,95927.91
2023-05-23T07:00:39.474Z,95900.31
2023-05-23T07:02:52.036Z,95926.81
2023-05-23T07:04:57.417Z,95922.81
2023-05-23T07:07:22.449Z,95928.16
2023-05-23T07:09:26.143Z,95924.63
2023-05-23T07:11:39.550Z,95927.06
2023-05-23T07:13:42.706Z,95934.41
2023-05-23T07:15:52.344Z,95926.28
2023-05-23T07:17:55.192Z,95934.94
2023-05-23T07:19:58.139Z,95938.47
2023-05-23T07:22:01.516Z,95942.34
2023-05-23T07:24:05.601Z,95942.06
2023-05-23T07:26:09.858Z,95926.56
2023-05-23T07:28:27.253Z,95917.75
2023-05-23T07:30:33.186Z,95939.50
2023-05-23T07:32:38.140Z,95946.38
2023-05-23T07:34:42.844Z,95956.91
2023-05-23T07:36:45.717Z,95961.44
2023-05-23T07:38:49.646Z,95954.03
2023-05-23T07:40:59.217Z,95920.34
2023-05-23T07:43:13.339Z,95958.28
2023-05-23T07:45:16.167Z,95960.59
2023-05-23T07:47:19.817Z,95965.91
2023-05-23T07:49:24.662Z,95957.63
2023-05-23T07:51:28.809Z,95935.66
2023-05-23T07:53:31.815Z,95971.97
2023-05-23T07:55:34.803Z,95964.91
2023-05-23T07:57:38.174Z,95949.91
2023-05-23T07:59:41.024Z,95970.28
2023-05-23T08:01:44.865Z,95952.63
2023-05-23T08:03:52.401Z,95958.66
2023-05-23T08:06:07.421Z,95951.81
2023-05-23T08:08:10.536Z,95966.75
2023-05-23T08:10:13.831Z,95972.75
2023-05-23T08:12:16.711Z,95964.19
2023-05-23T08:14:21.712Z,95944.88
2023-05-23T08:16:46.350Z,95963.81
2023-05-23T08:18:54.548Z,95981.50
2023-05-23T08:20:57.495Z,95973.88
2023-05-23T08:23:03.201Z,95993.16
2023-05-23T08:25:07.181Z,95930.75
2023-05-23T08:27:13.778Z,95979.19
2023-05-23T08:29:17.521Z,95983.97
2023-05-23T08:31:21.892Z,95992.19
2023-05-23T08:33:24.858Z,95998.59
2023-05-23T08:35:34.945Z,96000.91
2023-05-23T08:37:38.593Z,96000.06
2023-05-23T08:39:43.513Z,95901.66
2023-05-23T08:42:06.997Z,95999.66
2023-05-23T08:44:09.789Z,95999.69
2023-05-23T08:46:20.833Z,96003.31
2023-05-23T08:48:26.233Z,96004.94
2023-05-23T08:50:31.231Z,96001.94
2023-05-23T08:52:36.307Z,96013.78
2023-05-23T08:54:41.066Z,96012.94
2023-05-23T08:56:46.075Z,96017.66
2023-05-23T08:58:49.028Z,96021.31
2023-05-23T09:00:55.505Z,96009.91
2023-05-23T09:02:59.510Z,96004.84
2023-05-23T09:05:23.189Z,96025.03
2023-05-23T09:07:26.720Z,96025.94
2023-05-23T09:09:29.651Z,96028.25
2023-05-23T09:11:36.271Z,96032.00
2023-05-23T09:13:41.808Z,96029.16
2023-05-23T09:16:03.837Z,95995.13
2023-05-23T09:18:12.306Z,95997.09
2023-05-23T09:20:18.232Z,96034.22
2023-05-23T09:22:30.280Z,96017.69
2023-05-23T09:24:41.577Z,96027.81
2023-05-23T09:26:47.958Z,95879.69
2023-05-23T09:28:52.588Z,96031.84
2023-05-23T09:31:01.002Z,95912.66
2023-05-23T09:33:05.841Z,96028.72
2023-05-23T09:35:12.331Z,96025.47
2023-05-23T09:37:19.043Z,96029.88
2023-05-23T09:39:21.909Z,96012.19
2023-05-23T09:41:25.109Z,96035.34
2023-05-23T09:43:30.179Z,96034.28
2023-05-23T09:45:35.103Z,96033.56
2023-05-23T09:47:38.341Z,96040.78
2023-05-23T09:49:41.418Z,96039.25
2023-05-23T09:51:44.385Z,96041.56
2023-05-23T09:53:47.339Z,96039.66
2023-05-23T09:55:52.482Z,96047.19
2023-05-23T09:57:56.717Z,95954.56
2023-05-23T10:00:02.256Z,96046.81
2023-05-23T10:02:19.564Z,96041.34
2023-05-23T10:04:23.536Z,96028.69
2023-05-23T10:06:27.845Z,95994.19
2023-05-23T10:08:38.716Z,96053.69
2023-05-23T10:11:33.843Z,96047.25
2023-05-23T10:13:36.861Z,96044.41
2023-05-23T10:15:42.058Z,96040.41
2023-05-23T10:18:03.814Z,96045.84
2023-05-23T10:20:12.481Z,96045.47
2023-05-23T10:22:16.861Z,96052.84
2023-05-23T10:24:20.648Z,96043.69
2023-05-23T10:26:23.604Z,96046.28
2023-05-23T10:28:27.383Z,96047.44
2023-05-23T10:30:30.256Z,96032.47
2023-05-23T10:32:34.800Z,96046.94
2023-05-23T10:34:45.871Z,96043.66
2023-05-23T10:36:58.102Z,96015.78
2023-05-23T10:39:08.809Z,96033.59
2023-05-23T10:41:14.598Z,96027.41
2023-05-23T10:43:22.067Z,96037.03
2023-05-23T10:45:25.754Z,96031.00
2023-05-23T10:47:29.252Z,96041.03
2023-05-23T10:49:44.669Z,96045.09
2023-05-23T10:51:51.263Z,96030.78
2023-05-23T10:53:55.698Z,96040.34
2023-05-23T10:55:58.605Z,96032.56
2023-05-23T10:58:10.987Z,95995.78
2023-05-23T11:00:16.877Z,96032.47
2023-05-23T11:02:26.590Z,96032.53
2023-05-23T11:04:30.616Z,95959.34
2023-05-23T11:06:41.090Z,96047.44
2023-05-23T11:08:48.929Z,96037.19
2023-05-23T11:10:56.177Z,96034.69
2023-05-23T11:13:08.279Z,96026.44
2023-05-23T11:15:21.554Z,96026.63
2023-05-23T11:17:34.869Z,96035.19
2023-05-23T11:19:37.804Z,96035.25
2023-05-23T11:21:42.585Z,96032.97
2023-05-23T11:23:45.414Z,96027.53
2023-05-23T11:25:50.896Z,96022.72
2023-05-23T11:27:55.189Z,96020.38
2023-05-23T11:29:59.868Z,96022.09
2023-05-23T11:32:15.969Z,96017.94
2023-05-23T11:34:20.076Z,95949.28
2023-05-23T11:36:23.459Z,96025.66
2023-05-23T11:38:27.841Z,96027.69
2023-05-23T11:40:32.624Z,96028.19
2023-05-23T11:42:35.586Z,96030.66
2023-05-23T11:44:38.375Z,96024.19
2023-05-23T11:46:41.589Z,96018.69
2023-05-23T11:48:46.416Z,96005.09
2023-05-23T11:50:50.401Z,96024.38
2023-05-23T11:52:53.345Z,95916.81
2023-05-23T11:55:01.375Z,96022.41
2023-05-23T11:57:06.570Z,95983.25
2023-05-23T11:59:10.146Z,96018.53
2023-05-23T12:01:13.900Z,96018.34
2023-05-23T12:03:16.994Z,96020.09
2023-05-23T12:05:20.073Z,96008.06
2023-05-23T12:07:23.151Z,96022.50
2023-05-23T12:09:26.533Z,96025.16
2023-05-23T12:11:33.962Z,96022.69
2023-05-23T12:13:36.785Z,96018.03
2023-05-23T12:15:41.019Z,96014.38
2023-05-23T12:17:46.641Z,96017.28
2023-05-23T12:19:50.692Z,96014.56
2023-05-23T12:21:53.464Z,96006.84
2023-05-23T12:23:58.063Z,95926.03
2023-05-23T12:26:00.989Z,96015.97
2023-05-23T12:28:06.054Z,96013.25
2023-05-23T12:30:10.971Z,96005.59
2023-05-23T12:32:13.858Z,96006.38
2023-05-23T12:34:16.654Z,96005.66
2023-05-23T12:36:23.575Z,96019.09
2023-05-23T12:38:29.351Z,96018.91
2023-05-23T12:40:32.234Z,96009.50
2023-05-23T12:42:45.639Z,96011.94
2023-05-23T12:44:53.257Z,96010.66
2023-05-23T12:46:56.074Z,96006.69
2023-05-23T12:48:59.474Z,95930.72
2023-05-23T12:51:03.143Z,96000.41
2023-05-23T12:53:05.984Z,95992.53
2023-05-23T12:55:09.597Z,95995.78
2023-05-23T12:57:12.387Z,95993.53
2023-05-23T12:59:15.176Z,95989.50
2023-05-23T13:01:19.581Z,95990.78
2023-05-23T13:03:22.437Z,96000.72
2023-05-23T13:05:25.252Z,95997.13
2023-05-23T13:07:28.118Z,95997.69
2023-05-23T13:09:30.863Z,96004.78
2023-05-23T13:11:33.808Z,96008.19
2023-05-23T13:13:36.649Z,95929.09
2023-05-23T13:15:39.564Z,96005.84
2023-05-23T13:17:48.070Z,96004.91
2023-05-23T13:19:52.897Z,96002.16
2023-05-23T13:21:55.751Z,96011.72
2023-05-23T13:23:58.514Z,95999.13
2023-05-23T13:26:01.404Z,96006.56
2023-05-23T13:28:04.389Z,96003.75
2023-05-23T13:30:09.383Z,96012.41
2023-05-23T13:32:12.201Z,96006.22
2023-05-23T13:34:17.081Z,96016.00
2023-05-23T13:36:19.947Z,96004.47
2023-05-23T13:38:23.743Z,96005.31
2023-05-23T13:40:28.226Z,96000.59
2023-05-23T13:42:32.932Z,95967.13
2023-05-23T13:44:35.725Z,95994.81
2023-05-23T13:46:38.588Z,95988.97
2023-05-23T13:48:41.734Z,95933.38
2023-05-23T13:50:46.209Z,95988.84
2023-05-23T13:52:49.658Z,95994.63
2023-05-23T13:54:52.866Z,95975.63
2023-05-23T13:56:55.666Z,95988.53
2023-05-23T13:58:58.421Z,95963.38
2023-05-23T14:01:01.190Z,95985.41
2023-05-23T14:03:04.353Z,95979.91
2023-05-23T14:05:08.752Z,95982.53
2023-05-23T14:07:12.945Z,95984.19
2023-05-23T14:09:16.295Z,95979.81
2023-05-23T14:11:19.111Z,95978.72
2023-05-23T14:13:23.102Z,95984.28
2023-05-23T14:15:26.314Z,95990.94
2023-05-23T14:17:29.134Z,95991.91
2023-05-23T14:19:31.929Z,95992.53
2023-05-23T14:21:34.988Z,95941.16
2023-05-23T14:23:39.350Z,95993.16
2023-05-23T14:25:42.701Z,95907.53
2023-05-23T14:27:45.933Z,96000.41
2023-05-23T14:29:49.747Z,96004.56
2023-05-23T14:31:52.747Z,96003.72
2023-05-23T14:33:55.555Z,96005.59
2023-05-23T14:35:58.353Z,96009.16
2023-05-23T14:38:01.172Z,96007.41
2023-05-23T14:40:05.635Z,96004.75
2023-05-23T14:42:08.549Z,96005.38
2023-05-23T14:44:11.349Z,96010.16
2023-05-23T14:46:15.485Z,95999.09
2023-05-23T14:48:18.357Z,96005.13
2023-05-23T14:50:21.244Z,96007.22
2023-05-23T14:52:24.129Z,96002.00
2023-05-23T14:54:27.512Z,95999.16
2023-05-23T14:56:31.678Z,96005.06
2023-05-23T14:58:34.661Z,95994.97
2023-05-23T15:00:37.414Z,95985.78
2023-05-23T15:02:40.307Z,96002.53
2023-05-23T15:04:43.403Z,95877.31
2023-05-23T15:06:47.179Z,96003.13
2023-05-23T15:08:50.193Z,95998.88
2023-05-23T15:10:53.033Z,95999.91
2023-05-23T15:12:57.303Z,96007.06
2023-05-23T15:15:03.723Z,96005.69
2023-05-23T15:17:08.600Z,95962.84
2023-05-23T15:19:11.391Z,95950.72
2023-05-23T15:21:14.238Z,95962.03
2023-05-23T15:23:17.212Z,95983.97
2023-05-23T15:25:29.764Z,95982.41
2023-05-23T15:27:41.455Z,95971.78
2023-05-23T15:29:46.234Z,95974.38
2023-05-23T15:31:49.108Z,95985.34
2023-05-23T15:33:51.897Z,95981.22
2023-05-23T15:35:54.892Z,95989.13
2023-05-23T15:37:57.704Z,95984.25
2023-05-23T15:40:00.632Z,95981.84
2023-05-23T15:42:03.458Z,95985.56
2023-05-23T15:44:06.310Z,95976.31
2023-05-23T15:46:10.541Z,95944.94
2023-05-23T15:48:13.494Z,95975.84
2023-05-23T15:50:16.916Z,95978.66
2023-05-23T15:52:19.693Z,95985.66
2023-05-23T15:54:22.492Z,95988.03
2023-05-23T15:56:26.058Z,95980.50
2023-05-23T15:58:28.855Z,95986.63
2023-05-23T16:00:31.681Z,95987.53
2023-05-23T16:02:35.817Z,95980.75
2023-05-23T16:04:38.980Z,95964.34
2023-05-23T16:06:41.762Z,95989.47
2023-05-23T16:08:44.585Z,95987.59
2023-05-23T16:10:47.340Z,95960.97
2023-05-23T16:12:50.122Z,95977.16
2023-05-23T16:14:52.878Z,95980.91
2023-05-23T16:16:55.713Z,95984.59
2023-05-23T16:18:59.863Z,95900.56
2023-05-23T16:21:02.620Z,95985.97
2023-05-23T16:23:05.421Z,95937.88
2023-05-23T16:25:09.533Z,95988.56
2023-05-23T16:27:12.329Z,95982.31
2023-05-23T16:29:15.099Z,95978.66
2023-05-23T16:31:18.184Z,95989.81
2023-05-23T16:33:21.082Z,95979.03
2023-05-23T16:35:25.227Z,95980.63
2023-05-23T16:37:28.016Z,95976.28
2023-05-23T16:39:30.792Z,95943.31
2023-05-23T16:41:33.585Z,95933.44
2023-05-23T16:43:36.460Z,95971.00
2023-05-23T16:45:41.760Z,95979.84
2023-05-23T16:47:44.968Z,95941.16
2023-05-23T16:49:47.818Z,95975.06
2023-05-23T16:51:52.032Z,95886.50
2023-05-23T16:53:54.808Z,95976.28
2023-05-23T16:55:57.826Z,95975.94
2023-05-23T16:58:00.590Z,95989.50
2023-05-23T17:00:05.379Z,95979.16
2023-05-23T17:02:10.825Z,95972.78
2023-05-23T17:04:13.690Z,95981.41
2023-05-23T17:06:16.522Z,95985.31
2023-05-23T17:08:20.665Z,95983.69
2023-05-23T17:10:23.607Z,95928.97
2023-05-23T17:12:26.958Z,95985.19
2023-05-23T17:14:29.859Z,95983.69
2023-05-23T17:16:33.754Z,95992.91
2023-05-23T17:18:38.106Z,95984.44
2023-05-23T17:20:41.580Z,95982.88
2023-05-23T17:22:44.353Z,95911.47
2023-05-23T17:24:48.538Z,95996.09
2023-05-23T17:26:51.359Z,95948.88
2023-05-23T17:28:54.284Z,95988.31
2023-05-23T17:30:57.147Z,95988.47
2023-05-23T17:32:59.985Z,95990.88
2023-05-23T17:35:02.898Z,95964.91
2023-05-23T17:37:06.130Z,95992.28
2023-05-23T17:39:09.879Z,95998.38
2023-05-23T17:41:14.645Z,95975.34
2023-05-23T17:43:17.576Z,95991.63
2023-05-23T17:45:20.489Z,96020.94
2023-05-23T17:47:23.300Z,95915.56
2023-05-23T17:49:26.288Z,95953.16
2023-05-23T17:51:29.125Z,95999.25
2023-05-23T17:53:31.933Z,96000.94
2023-05-23T17:55:34.808Z,95925.38
2023-05-23T17:57:38.916Z,96005.63
2023-05-23T17:59:41.718Z,96011.81
2023-05-23T18:01:44.668Z,96011.50
2023-05-23T18:03:48.977Z,95939.56
2023-05-23T18:05:52.152Z,95912.59
2023-05-23T18:07:54.972Z,96001.44
2023-05-23T18:09:59.642Z,96011.53
2023-05-23T18:12:02.661Z,96030.78
2023-05-23T18:14:07.233Z,96015.09
2023-05-23T18:16:10.053Z,96011.38
2023-05-23T18:18:12.883Z,96025.25
2023-05-23T18:20:15.962Z,96021.22
2023-05-23T18:22:19.898Z,96015.94
2023-05-23T18:24:22.854Z,96017.78
2023-05-23T18:26:25.665Z,96017.81
2023-05-23T18:28:28.546Z,95994.84
2023-05-23T18:30:33.432Z,96030.88
2023-05-23T18:32:36.372Z,96032.06
2023-05-23T18:34:39.212Z,96013.94
2023-05-23T18:36:42.013Z,96036.47
2023-05-23T18:38:45.610Z,96045.00
2023-05-23T18:40:48.458Z,96039.53
2023-05-23T18:42:51.364Z,95955.31
2023-05-23T18:44:54.152Z,96042.38
2023-05-23T18:46:58.304Z,96037.34
2023-05-23T18:49:01.141Z,95967.34
2023-05-23T18:51:03.974Z,96052.66
2023-05-23T18:53:07.369Z,96018.66
2023-05-23T18:55:11.280Z,96053.56
2023-05-23T18:57:14.138Z,96024.69
2023-05-23T18:59:16.992Z,95901.72
2023-05-23T19:01:20.067Z,96018.41
2023-05-23T19:03:24.278Z,96057.81
2023-05-23T19:05:27.364Z,96057.88
2023-05-23T19:07:30.381Z,95997.34
2023-05-23T19:09:33.183Z,96065.13
2023-05-23T19:11:36.224Z,96064.44
2023-05-23T19:13:38.983Z,96055.31
2023-05-23T19:15:41.753Z,96068.28
2023-05-23T19:17:46.568Z,96063.97
2023-05-23T19:19:50.852Z,96068.28
2023-05-23T19:21:53.720Z,96073.97
2023-05-23T19:23:56.486Z,96079.09
2023-05-23T19:25:59.274Z,96087.22
2023-05-23T19:28:02.066Z,96079.66
2023-05-23T19:30:05.852Z,96053.72
2023-05-23T19:32:08.803Z,96077.47
2023-05-23T19:34:11.675Z,96088.28
2023-05-23T19:36:15.830Z,96095.59
2023-05-23T19:38:18.605Z,96030.97
2023-05-23T19:40:22.346Z,96091.53
2023-05-23T19:42:25.323Z,96092.56
2023-05-23T19:44:28.076Z,96096.34
2023-05-23T19:46:30.865Z,96097.72
2023-05-23T19:48:33.651Z,96097.41
2023-05-23T19:50:36.537Z,95997.91
2023-05-23T19:52:41.934Z,96109.59
2023-05-23T19:54:44.960Z,96115.00
2023-05-23T19:56:47.876Z,96109.84
2023-05-23T19:58:50.639Z,96102.25
2023-05-23T20:00:53.724Z,96121.34
2023-05-23T20:02:56.752Z,96111.41
2023-05-23T20:04:59.636Z,96111.38
2023-05-23T20:07:02.417Z,96109.44
2023-05-23T20:09:06.738Z,96117.03
2023-05-23T20:11:10.222Z,96113.75
2023-05-23T20:13:13.008Z,96125.66
2023-05-23T20:15:19.657Z,96125.38
2023-05-23T20:17:29.249Z,96134.03
2023-05-23T20:19:32.188Z,96136.22
2023-05-23T20:21:35.194Z,96133.50
2023-05-23T20:23:37.927Z,96140.50
2023-05-23T20:25:46.554Z,96139.88
2023-05-23T20:27:49.345Z,96137.16
2023-05-23T20:29:52.558Z,96136.13
2023-05-23T20:31:56.048Z,96146.72
2023-05-23T20:33:58.768Z,96141.34
2023-05-23T20:36:03.663Z,96149.38
2023-05-23T20:38:06.376Z,96149.13
2023-05-23T20:40:10.357Z,96154.75
2023-05-23T20:42:15.092Z,96152.00
2023-05-23T20:44:18.295Z,96160.72
2023-05-23T20:46:21.114Z,96156.72
2023-05-23T20:48:23.960Z,96157.47
2023-05-23T20:50:26.883Z,96103.00
2023-05-23T20:52:29.651Z,96160.94
2023-05-23T20:54:34.442Z,96110.84
2023-05-23T20:56:37.416Z,96162.88
2023-05-23T20:58:43.110Z,96174.47
2023-05-23T21:00:46.128Z,96103.00
2023-05-23T21:02:49.061Z,96172.91
2023-05-23T21:04:52.006Z,96168.72
2023-05-23T21:06:54.814Z,96179.22
2023-05-23T21:08:57.574Z,96176.94
2023-05-23T21:11:00.484Z,96172.09
2023-05-23T21:13:03.303Z,96168.94
2023-05-23T21:15:09.798Z,96189.38
2023-05-23T21:17:12.659Z,96182.88
2023-05-23T21:19:15.584Z,96129.81
2023-05-23T21:21:18.358Z,96190.59
2023-05-23T21:23:21.133Z,96187.19
2023-05-23T21:25:24.092Z,96191.25
2023-05-23T21:27:26.965Z,96174.19
2023-05-23T21:29:29.707Z,96192.44
2023-05-23T21:31:41.649Z,96177.19
2023-05-23T21:33:44.768Z,96191.56
2023-05-23T21:35:47.721Z,96200.03
2023-05-23T21:37:50.793Z,96199.59
2023-05-23T21:39:53.836Z,96199.38
2023-05-23T21:41:56.556Z,96190.16
2023-05-23T21:43:59.353Z,96185.84
2023-05-23T21:46:02.228Z,96185.81
2023-05-23T21:48:06.733Z,96193.78
2023-05-23T21:50:10.527Z,96195.69
2023-05-23T21:52:13.291Z,96191.00
2023-05-23T21:54:16.152Z,96194.81
2023-05-23T21:56:18.874Z,96187.53
2023-05-23T21:58:21.599Z,96096.19
2023-05-23T22:00:27.125Z,96182.47
2023-05-23T22:02:29.941Z,96187.81
2023-05-23T22:04:34.205Z,96174.13
2023-05-23T22:06:38.594Z,96187.06
2023-05-23T22:08:42.039Z,96177.88
2023-05-23T22:10:44.806Z,96180.34
2023-05-23T22:12:47.607Z,96176.88
2023-05-23T22:14:50.491Z,96156.06
2023-05-23T22:16:54.365Z,96193.44
2023-05-23T22:18:58.129Z,96183.50
2023-05-23T22:21:02.529Z,96055.41
2023-05-23T22:23:06.210Z,96196.22
2023-05-23T22:25:09.773Z,96177.31
2023-05-23T22:27:12.705Z,96179.47
2023-05-23T22:29:15.692Z,96184.00
2023-05-23T22:31:18.546Z,96183.38
2023-05-23T22:33:21.351Z,96179.88
2023-05-23T22:35:24.352Z,96186.47
2023-05-23T22:37:28.527Z,96183.03
2023-05-23T22:39:31.487Z,96087.34
2023-05-23T22:41:35.827Z,96191.34
2023-05-23T22:43:38.683Z,96185.09
2023-05-23T22:45:42.529Z,96188.56
2023-05-23T22:47:48.424Z,96194.66
2023-05-23T22:49:53.964Z,96208.91
2023-05-23T22:51:56.902Z,96188.25
2023-05-23T22:54:00.955Z,96177.16
2023-05-23T22:56:03.694Z,96176.72
2023-05-23T22:58:07.848Z,96183.69
2023-05-23T23:00:13.473Z,96177.72
2023-05-23T23:02:16.327Z,96185.00
2023-05-23T23:04:23.416Z,96190.25
2023-05-23T23:06:26.643Z,96176.59
2023-05-23T23:08:29.392Z,96180.44
2023-05-23T23:10:33.451Z,96180.94
2023-05-23T23:12:36.586Z,96180.44
2023-05-23T23:14:39.300Z,96174.75
2023-05-23T23:16:42.680Z,96173.97
2023-05-23T23:18:45.493Z,96184.59
2023-05-23T23:20:48.358Z,96157.97
2023-05-23T23:22:51.373Z,96189.91
2023-05-23T23:24:54.160Z,95977.53
2023-05-23T23:26:58.217Z,96186.63
2023-05-23T23:29:00.929Z,96178.50
2023-05-23T23:31:03.737Z,96175.78
2023-05-23T23:33:06.554Z,96179.50
2023-05-23T23:35:09.840Z,96185.16
2023-05-23T23:37:12.548Z,96174.47
2023-05-23T23:39:15.260Z,96000.84
2023-05-23T23:41:18.004Z,96165.41
2023-05-23T23:43:22.126Z,96093.00
2023-05-23T23:45:25.067Z,96164.81
2023-05-23T23:47:28.082Z,96171.25
2023-05-23T23:49:30.812Z,96176.91
2023-05-23T23:51:33.608Z,96174.59
2023-05-23T23:53:36.590Z,96166.56
2023-05-23T23:55:39.370Z,96175.06
2023-05-23T23:57:42.111Z,96167.16
2023-05-23T23:59:46.179Z,96167.50
